createdAt,value
2019-05-29T00:00:42.420Z,16.71
2019-05-29T00:03:14.797Z,16.72
2019-05-29T00:05:46.721Z,16.78
2019-05-29T00:08:18.589Z,16.79
2019-05-29T00:10:50.447Z,16.76
2019-05-29T00:13:22.445Z,16.79
2019-05-29T00:15:54.401Z,16.81
2019-05-29T00:18:26.372Z,16.82
2019-05-29T00:20:58.190Z,16.85
2019-05-29T00:23:30.311Z,16.87
2019-05-29T00:26:02.117Z,16.86
2019-05-29T00:28:33.996Z,16.85
2019-05-29T00:31:05.927Z,16.85
2019-05-29T00:33:37.875Z,16.74
2019-05-29T00:36:10.363Z,16.62
2019-05-29T00:38:42.296Z,16.63
2019-05-29T00:41:15.085Z,16.68
2019-05-29T00:43:47.348Z,16.72
2019-05-29T00:46:19.439Z,16.71
2019-05-29T00:48:51.471Z,16.76
2019-05-29T00:51:23.364Z,16.77
2019-05-29T00:53:55.428Z,16.80
2019-05-29T00:56:27.251Z,16.80
2019-05-29T00:58:59.290Z,16.80
2019-05-29T01:01:31.144Z,16.79
2019-05-29T01:04:03.152Z,16.75
2019-05-29T01:06:34.941Z,16.73
2019-05-29T01:09:10.355Z,16.70
2019-05-29T01:11:42.077Z,16.62
2019-05-29T01:14:15.145Z,16.54
2019-05-29T01:16:47.567Z,16.45
2019-05-29T01:19:25.480Z,16.48
2019-05-29T01:21:58.551Z,16.53
2019-05-29T01:24:30.470Z,16.44
2019-05-29T01:27:02.235Z,16.35
2019-05-29T01:29:34.058Z,16.35
2019-05-29T01:32:06.093Z,16.25
2019-05-29T01:34:37.850Z,16.06
2019-05-29T01:37:09.709Z,16.06
2019-05-29T01:39:41.493Z,16.00
2019-05-29T01:42:13.223Z,15.95
2019-05-29T01:44:45.224Z,15.97
2019-05-29T01:47:17.459Z,15.95
2019-05-29T01:49:49.768Z,15.81
2019-05-29T01:52:21.912Z,15.78
2019-05-29T01:54:54.099Z,15.65
2019-05-29T01:57:25.814Z,15.42
2019-05-29T01:59:57.923Z,15.41
2019-05-29T02:02:29.657Z,15.37
2019-05-29T02:05:01.557Z,15.37
2019-05-29T02:07:33.380Z,15.21
2019-05-29T02:10:05.968Z,15.09
2019-05-29T02:12:37.782Z,15.05
2019-05-29T02:15:22.869Z,15.05
2019-05-29T02:17:44.167Z,15.02
2019-05-29T02:20:19.372Z,14.92
2019-05-29T02:22:51.200Z,14.99
2019-05-29T02:25:24.494Z,14.89
2019-05-29T02:27:56.228Z,14.87
2019-05-29T02:30:30.673Z,14.82
2019-05-29T02:33:01.788Z,14.71
2019-05-29T02:35:34.027Z,14.67
2019-05-29T02:38:05.825Z,14.68
2019-05-29T02:40:37.739Z,14.74
2019-05-29T02:43:09.477Z,14.71
2019-05-29T02:45:53.555Z,14.76
2019-05-29T02:48:15.117Z,14.80
2019-05-29T02:50:47.335Z,14.77
2019-05-29T02:53:20.035Z,14.82
2019-05-29T02:55:52.441Z,14.80
2019-05-29T02:58:25.839Z,14.63
2019-05-29T03:00:58.375Z,14.66
2019-05-29T03:03:37.963Z,14.64
2019-05-29T03:06:04.652Z,14.63
2019-05-29T03:08:36.394Z,14.49
2019-05-29T03:11:08.476Z,14.44
2019-05-29T03:13:40.374Z,14.29
2019-05-29T03:16:13.266Z,14.32
2019-05-29T03:18:45.677Z,14.28
2019-05-29T03:21:17.544Z,14.29
2019-05-29T03:23:49.317Z,14.32
2019-05-29T03:26:24.641Z,14.28
2019-05-29T03:28:54.832Z,14.24
2019-05-29T03:31:30.027Z,14.18
2019-05-29T03:34:00.170Z,14.23
2019-05-29T03:36:39.607Z,14.24
2019-05-29T03:39:06.854Z,14.27
2019-05-29T03:41:39.130Z,14.24
2019-05-29T03:44:11.532Z,14.22
2019-05-29T03:46:45.876Z,14.20
2019-05-29T03:49:17.477Z,14.21
2019-05-29T03:51:49.643Z,14.26
2019-05-29T03:54:21.460Z,14.22
2019-05-29T03:56:53.334Z,14.21
2019-05-29T03:59:26.726Z,14.21
2019-05-29T04:01:59.286Z,14.22
2019-05-29T04:04:31.813Z,14.18
2019-05-29T04:07:04.860Z,14.19
2019-05-29T04:09:37.370Z,14.12
2019-05-29T04:12:09.945Z,14.12
2019-05-29T04:14:42.209Z,14.11
2019-05-29T04:17:16.733Z,14.01
2019-05-29T04:19:48.884Z,13.99
2019-05-29T04:22:28.195Z,13.99
2019-05-29T04:25:04.331Z,13.86
2019-05-29T04:27:38.927Z,13.79
2019-05-29T04:30:11.453Z,13.75
2019-05-29T04:32:43.280Z,13.75
2019-05-29T04:35:15.237Z,13.69
2019-05-29T04:37:47.451Z,13.70
2019-05-29T04:40:19.296Z,13.70
2019-05-29T04:42:51.245Z,13.62
2019-05-29T04:45:23.982Z,13.59
2019-05-29T04:47:55.825Z,13.53
2019-05-29T04:50:29.020Z,13.51
2019-05-29T04:53:01.330Z,13.41
2019-05-29T04:55:33.170Z,13.23
2019-05-29T04:58:05.030Z,13.23
2019-05-29T05:00:37.264Z,13.26
2019-05-29T05:03:09.408Z,13.16
2019-05-29T05:05:41.460Z,12.98
2019-05-29T05:08:13.425Z,13.05
2019-05-29T05:10:46.067Z,13.10
2019-05-29T05:13:18.067Z,12.90
2019-05-29T05:15:52.986Z,12.91
2019-05-29T05:18:25.071Z,13.02
2019-05-29T05:20:56.940Z,13.01
2019-05-29T05:23:30.018Z,13.09
2019-05-29T05:26:01.964Z,13.16
2019-05-29T05:28:34.385Z,13.17
2019-05-29T05:31:06.338Z,13.14
2019-05-29T05:33:38.655Z,13.05
2019-05-29T05:36:10.981Z,12.99
2019-05-29T05:38:43.018Z,13.03
2019-05-29T05:41:14.872Z,13.00
2019-05-29T05:43:46.662Z,12.98
2019-05-29T05:46:18.451Z,13.04
2019-05-29T05:48:50.417Z,13.02
2019-05-29T05:51:22.506Z,13.00
2019-05-29T05:53:54.939Z,12.85
2019-05-29T05:56:26.814Z,12.84
2019-05-29T05:58:58.959Z,12.90
2019-05-29T06:01:31.718Z,12.95
2019-05-29T06:04:03.996Z,12.94
2019-05-29T06:06:36.233Z,12.95
2019-05-29T06:09:09.671Z,12.95
2019-05-29T06:11:42.545Z,12.92
2019-05-29T06:14:14.824Z,12.91
2019-05-29T06:16:47.758Z,12.82
2019-05-29T06:19:19.887Z,12.84
2019-05-29T06:21:52.033Z,12.87
2019-05-29T06:24:24.256Z,12.87
2019-05-29T06:26:56.177Z,12.90
2019-05-29T06:29:28.346Z,12.80
2019-05-29T06:32:00.165Z,12.77
2019-05-29T06:34:33.494Z,12.69
2019-05-29T06:37:06.070Z,12.72
2019-05-29T06:39:37.915Z,12.72
2019-05-29T06:42:10.222Z,12.60
2019-05-29T06:44:44.861Z,12.60
2019-05-29T06:47:16.337Z,12.57
2019-05-29T06:49:48.882Z,12.58
2019-05-29T06:52:21.946Z,12.51
2019-05-29T06:54:54.326Z,12.58
2019-05-29T06:57:26.313Z,12.54
2019-05-29T07:00:00.033Z,12.53
2019-05-29T07:02:32.763Z,12.48
2019-05-29T07:05:05.506Z,12.52
2019-05-29T07:07:38.376Z,12.61
2019-05-29T07:10:11.148Z,12.67
2019-05-29T07:12:44.513Z,12.65
2019-05-29T07:15:18.513Z,12.68
2019-05-29T07:17:50.612Z,12.67
2019-05-29T07:20:22.666Z,12.71
2019-05-29T07:22:54.802Z,12.67
2019-05-29T07:25:26.905Z,12.62
2019-05-29T07:27:58.715Z,12.69
2019-05-29T07:30:32.673Z,12.68
2019-05-29T07:33:04.536Z,12.86
2019-05-29T07:39:55.039Z,12.95
2019-05-29T07:42:26.804Z,13.02
2019-05-29T07:44:58.885Z,13.10
2019-05-29T07:47:30.721Z,13.15
2019-05-29T07:50:02.814Z,13.20
2019-05-29T07:52:35.991Z,13.27
2019-05-29T07:55:08.931Z,13.29
2019-05-29T07:57:40.970Z,13.34
2019-05-29T08:00:15.129Z,13.35
2019-05-29T08:02:47.497Z,13.35
2019-05-29T08:05:19.629Z,13.34
2019-05-29T08:07:51.413Z,13.37
2019-05-29T08:10:23.851Z,13.35
2019-05-29T08:12:56.120Z,13.40
2019-05-29T08:15:28.128Z,13.37
2019-05-29T08:17:59.948Z,13.43
2019-05-29T08:20:31.821Z,13.49
2019-05-29T08:23:03.640Z,13.52
2019-05-29T08:25:36.045Z,13.61
2019-05-29T08:28:07.928Z,13.68
2019-05-29T08:30:41.155Z,13.81
2019-05-29T08:33:13.523Z,13.89
2019-05-29T08:35:45.472Z,14.00
2019-05-29T08:38:17.308Z,13.98
2019-05-29T08:40:49.599Z,14.17
2019-05-29T08:43:21.440Z,14.32
2019-05-29T08:45:53.351Z,14.37
2019-05-29T08:48:26.188Z,14.34
2019-05-29T08:50:58.041Z,14.39
2019-05-29T08:53:29.973Z,14.44
2019-05-29T08:56:02.229Z,14.38
2019-05-29T08:58:37.137Z,14.32
2019-05-29T09:01:07.714Z,14.37
2019-05-29T09:03:39.672Z,14.35
2019-05-29T09:06:13.747Z,14.35
2019-05-29T09:08:46.674Z,14.50
2019-05-29T09:11:19.982Z,14.65
2019-05-29T09:13:53.077Z,14.67
2019-05-29T09:16:25.131Z,14.67
2019-05-29T09:18:57.005Z,14.58
2019-05-29T09:21:29.194Z,14.49
2019-05-29T09:24:00.992Z,14.38
2019-05-29T09:26:33.035Z,14.43
2019-05-29T09:29:04.810Z,14.49
2019-05-29T09:31:36.658Z,14.71
2019-05-29T09:34:08.443Z,14.97
2019-05-29T09:36:40.636Z,15.32
2019-05-29T09:39:12.787Z,15.24
2019-05-29T09:41:44.983Z,15.36
2019-05-29T09:44:32.919Z,15.48
2019-05-29T09:46:50.655Z,15.60
2019-05-29T09:49:23.870Z,15.71
2019-05-29T09:51:57.917Z,15.51
2019-05-29T09:54:29.922Z,15.48
2019-05-29T09:57:02.846Z,15.66
2019-05-29T09:59:34.869Z,15.82
2019-05-29T10:02:08.816Z,15.88
2019-05-29T10:04:40.703Z,15.61
2019-05-29T10:07:12.819Z,15.22
2019-05-29T10:09:44.608Z,14.82
2019-05-29T10:12:16.769Z,14.65
2019-05-29T10:14:51.334Z,14.58
2019-05-29T10:17:22.154Z,14.63
2019-05-29T10:19:55.367Z,14.65
2019-05-29T10:22:27.882Z,14.69
2019-05-29T10:25:00.052Z,14.64
2019-05-29T10:27:33.025Z,14.68
2019-05-29T10:30:05.296Z,14.75
2019-05-29T10:32:37.253Z,14.77
2019-05-29T10:35:09.087Z,14.79
2019-05-29T10:37:42.585Z,14.69
2019-05-29T10:40:15.581Z,14.78
2019-05-29T10:42:49.013Z,14.82
2019-05-29T10:45:21.423Z,14.89
2019-05-29T10:47:54.104Z,15.08
2019-05-29T10:50:26.007Z,15.31
2019-05-29T10:52:58.097Z,15.56
2019-05-29T10:55:29.924Z,15.68
2019-05-29T10:58:01.986Z,15.66
2019-05-29T11:00:37.982Z,15.60
2019-05-29T11:03:07.795Z,15.66
2019-05-29T11:05:39.547Z,15.75
2019-05-29T11:08:11.643Z,15.79
2019-05-29T11:10:43.406Z,15.91
2019-05-29T11:13:15.869Z,15.86
2019-05-29T11:15:48.563Z,15.84
2019-05-29T11:18:20.719Z,15.62
2019-05-29T11:20:53.456Z,15.43
2019-05-29T11:23:25.429Z,15.29
2019-05-29T11:25:58.199Z,15.00
2019-05-29T11:28:30.507Z,14.77
2019-05-29T11:31:06.175Z,14.75
2019-05-29T11:33:36.077Z,14.94
2019-05-29T11:36:12.585Z,15.32
2019-05-29T11:38:41.648Z,15.95
2019-05-29T11:41:25.901Z,16.79
2019-05-29T11:43:47.843Z,17.59
2019-05-29T11:46:19.653Z,18.07
2019-05-29T11:48:51.544Z,18.53
2019-05-29T11:51:23.894Z,18.50
2019-05-29T11:53:55.977Z,18.09
2019-05-29T11:56:27.939Z,17.94
2019-05-29T11:59:00.237Z,17.68
2019-05-29T12:01:48.979Z,17.42
2019-05-29T12:04:22.986Z,17.97
2019-05-29T12:06:40.449Z,18.88
2019-05-29T12:09:13.222Z,19.25
2019-05-29T12:11:45.047Z,19.00
2019-05-29T12:14:17.158Z,18.87
2019-05-29T12:16:48.930Z,18.69
2019-05-29T12:19:22.091Z,18.30
2019-05-29T12:21:54.449Z,18.15
2019-05-29T12:24:27.327Z,18.20
2019-05-29T12:26:59.120Z,18.35
2019-05-29T12:29:31.153Z,18.24
2019-05-29T12:32:08.146Z,18.45
2019-05-29T12:34:36.729Z,18.66
2019-05-29T12:37:08.607Z,18.43
2019-05-29T12:39:40.634Z,18.37
2019-05-29T12:42:12.425Z,18.45
2019-05-29T12:44:44.607Z,18.44
2019-05-29T12:47:16.361Z,18.24
2019-05-29T12:49:48.255Z,18.31
2019-05-29T12:52:20.053Z,18.19
2019-05-29T12:54:52.234Z,18.27
2019-05-29T12:57:24.042Z,18.22
2019-05-29T12:59:56.251Z,18.40
2019-05-29T13:02:28.026Z,18.42
2019-05-29T13:05:08.381Z,18.55
2019-05-29T13:07:33.554Z,18.94
2019-05-29T13:10:06.565Z,19.07
2019-05-29T13:12:39.531Z,19.14
2019-05-29T13:15:14.070Z,18.98
2019-05-29T13:17:45.956Z,18.70
2019-05-29T13:20:22.036Z,18.78
2019-05-29T13:22:52.285Z,18.77
2019-05-29T13:25:25.723Z,18.73
2019-05-29T13:27:59.407Z,18.66
2019-05-29T13:30:32.225Z,18.79
2019-05-29T13:33:07.392Z,18.90
2019-05-29T13:35:37.899Z,19.49
2019-05-29T13:38:09.933Z,20.01
2019-05-29T13:40:41.870Z,20.14
2019-05-29T13:43:15.810Z,20.68
2019-05-29T13:45:47.686Z,22.44
2019-05-29T13:48:21.333Z,24.03
2019-05-29T13:50:53.309Z,23.52
2019-05-29T13:53:25.121Z,22.33
2019-05-29T13:55:57.745Z,21.70
2019-05-29T13:58:29.629Z,22.01
2019-05-29T14:01:02.477Z,22.64
2019-05-29T14:03:35.351Z,22.66
2019-05-29T14:06:09.356Z,22.31
2019-05-29T14:08:41.095Z,22.17
2019-05-29T14:11:12.989Z,22.58
2019-05-29T14:13:44.928Z,22.91
2019-05-29T14:16:17.181Z,23.52
2019-05-29T14:18:49.110Z,23.51
2019-05-29T14:21:21.003Z,23.12
2019-05-29T14:23:52.910Z,22.24
2019-05-29T14:26:24.863Z,21.90
2019-05-29T14:28:56.662Z,21.29
2019-05-29T14:31:28.965Z,22.58
2019-05-29T14:34:00.962Z,25.70
2019-05-29T14:36:32.994Z,26.66
2019-05-29T14:39:07.603Z,26.20
2019-05-29T14:41:40.137Z,26.87
2019-05-29T14:44:12.124Z,29.93
2019-05-29T14:46:44.267Z,33.09
2019-05-29T14:49:16.039Z,34.40
2019-05-29T14:51:47.907Z,34.31
2019-05-29T14:54:19.705Z,35.27
2019-05-29T14:56:51.605Z,33.77
2019-05-29T14:59:23.458Z,30.07
2019-05-29T15:01:56.012Z,27.75
2019-05-29T15:04:27.825Z,26.11
2019-05-29T15:07:00.043Z,24.95
2019-05-29T15:09:31.838Z,24.56
2019-05-29T15:12:04.037Z,24.44
2019-05-29T15:14:35.905Z,24.23
2019-05-29T15:17:09.041Z,24.30
2019-05-29T15:19:41.052Z,24.16
2019-05-29T15:22:14.145Z,23.85
2019-05-29T15:25:01.505Z,23.81
2019-05-29T15:27:20.250Z,23.78
2019-05-29T15:29:52.045Z,22.45
2019-05-29T15:32:24.377Z,22.49
2019-05-29T15:34:56.182Z,22.86
2019-05-29T15:37:28.109Z,22.69
2019-05-29T15:39:59.936Z,22.66
2019-05-29T15:42:32.174Z,22.26
2019-05-29T15:45:04.096Z,21.80
2019-05-29T15:47:36.580Z,21.36
2019-05-29T15:50:09.199Z,20.99
2019-05-29T15:52:41.288Z,20.64
2019-05-29T15:55:28.422Z,20.40
2019-05-29T15:57:49.024Z,20.35
2019-05-29T16:00:22.024Z,20.43
2019-05-29T16:02:54.602Z,20.48
2019-05-29T16:05:26.394Z,20.54
2019-05-29T16:07:58.282Z,20.58
2019-05-29T16:10:30.110Z,20.46
2019-05-29T16:13:01.925Z,20.36
2019-05-29T16:15:33.758Z,20.26
2019-05-29T16:18:19.021Z,20.22
2019-05-29T16:20:39.294Z,20.14
2019-05-29T16:23:12.534Z,19.93
2019-05-29T16:25:44.723Z,19.67
2019-05-29T16:28:17.274Z,19.51
2019-05-29T16:30:49.312Z,19.33
2019-05-29T16:33:21.653Z,19.21
2019-05-29T16:35:53.682Z,19.12
2019-05-29T16:38:27.030Z,19.09
2019-05-29T16:40:58.883Z,19.01
2019-05-29T16:43:30.841Z,18.96
2019-05-29T16:46:02.746Z,18.87
2019-05-29T16:48:34.966Z,18.81
2019-05-29T16:51:06.780Z,18.80
2019-05-29T16:53:39.841Z,18.71
2019-05-29T16:56:12.719Z,18.27
2019-05-29T16:58:44.631Z,18.31
2019-05-29T17:01:17.387Z,18.10
2019-05-29T17:03:49.679Z,17.99
2019-05-29T17:06:22.452Z,18.03
2019-05-29T17:08:55.595Z,18.05
2019-05-29T17:11:27.408Z,18.13
2019-05-29T17:13:59.268Z,18.08
2019-05-29T17:16:31.146Z,17.89
2019-05-29T17:19:04.470Z,17.91
2019-05-29T17:21:36.395Z,17.87
2019-05-29T17:24:08.496Z,17.88
2019-05-29T17:26:40.522Z,17.80
2019-05-29T17:29:12.878Z,17.69
2019-05-29T17:31:44.840Z,17.66
2019-05-29T17:34:18.939Z,17.60
2019-05-29T17:36:52.689Z,17.48
2019-05-29T17:39:25.193Z,17.37
2019-05-29T17:41:57.368Z,17.27
2019-05-29T17:44:29.270Z,17.19
2019-05-29T17:47:01.191Z,17.11
2019-05-29T17:49:34.767Z,17.02
2019-05-29T17:52:06.937Z,16.92
2019-05-29T17:54:39.029Z,16.88
2019-05-29T17:57:10.937Z,16.77
2019-05-29T17:59:42.814Z,16.70
2019-05-29T18:02:15.967Z,16.63
2019-05-29T18:04:48.413Z,16.53
2019-05-29T18:07:20.614Z,16.43
2019-05-29T18:09:52.630Z,16.36
2019-05-29T18:12:25.096Z,16.30
2019-05-29T18:14:57.546Z,16.18
2019-05-29T18:17:29.487Z,16.08
2019-05-29T18:20:01.526Z,15.94
2019-05-29T18:22:33.436Z,15.86
2019-05-29T18:25:06.815Z,15.80
2019-05-29T18:27:38.583Z,15.71
2019-05-29T18:30:11.824Z,15.64
2019-05-29T18:32:43.770Z,15.53
2019-05-29T18:35:16.914Z,15.41
2019-05-29T18:37:48.827Z,15.34
2019-05-29T18:40:22.302Z,15.25
2019-05-29T18:42:54.509Z,15.13
2019-05-29T18:45:27.744Z,15.06
2019-05-29T18:48:01.469Z,14.96
2019-05-29T18:50:33.556Z,14.87
2019-05-29T18:53:05.479Z,14.82
2019-05-29T18:55:37.406Z,14.71
2019-05-29T18:58:09.238Z,14.62
2019-05-29T19:00:41.362Z,14.54
2019-05-29T19:03:13.122Z,14.50
2019-05-29T19:05:45.686Z,14.37
2019-05-29T19:08:17.888Z,14.32
2019-05-29T19:10:50.226Z,14.27
2019-05-29T19:13:23.446Z,14.21
2019-05-29T19:15:55.872Z,14.13
2019-05-29T19:18:28.273Z,14.05
2019-05-29T19:21:00.179Z,13.99
2019-05-29T19:23:32.960Z,13.94
2019-05-29T19:26:04.915Z,13.85
2019-05-29T19:28:37.215Z,13.79
2019-05-29T19:31:09.148Z,13.72
2019-05-29T19:33:41.028Z,13.66
2019-05-29T19:36:14.663Z,13.62
2019-05-29T19:38:46.502Z,13.56
2019-05-29T19:41:18.310Z,13.52
2019-05-29T19:43:50.144Z,13.46
2019-05-29T19:46:22.043Z,13.38
2019-05-29T19:48:53.918Z,13.34
2019-05-29T19:51:27.267Z,13.31
2019-05-29T19:53:59.301Z,13.22
2019-05-29T19:56:31.733Z,13.20
2019-05-29T19:59:04.052Z,13.18
2019-05-29T20:01:40.236Z,13.09
2019-05-29T20:04:09.546Z,13.11
2019-05-29T20:06:41.414Z,13.14
2019-05-29T20:09:13.254Z,13.09
2019-05-29T20:11:45.331Z,13.05
2019-05-29T20:14:17.370Z,13.01
2019-05-29T20:16:49.478Z,13.00
2019-05-29T20:19:21.304Z,12.95
2019-05-29T20:21:53.622Z,12.90
2019-05-29T20:24:26.718Z,12.86
2019-05-29T20:26:59.913Z,12.80
2019-05-29T20:29:32.399Z,12.75
2019-05-29T20:32:04.749Z,12.68
2019-05-29T20:34:36.916Z,12.60
2019-05-29T20:37:09.268Z,12.53
2019-05-29T20:39:41.018Z,12.48
2019-05-29T20:42:13.108Z,12.41
2019-05-29T20:44:44.880Z,12.33
2019-05-29T20:47:16.943Z,12.26
2019-05-29T20:49:48.753Z,12.19
2019-05-29T20:52:21.271Z,12.14
2019-05-29T20:54:53.236Z,12.08
2019-05-29T20:57:26.933Z,12.01
2019-05-29T20:59:59.032Z,11.92
2019-05-29T21:02:32.005Z,11.86
2019-05-29T21:05:04.394Z,11.82
2019-05-29T21:07:36.709Z,11.75
2019-05-29T21:10:10.770Z,11.69
2019-05-29T21:12:46.123Z,11.65
2019-05-29T21:15:18.318Z,11.58
2019-05-29T21:17:50.426Z,11.53
2019-05-29T21:20:22.328Z,11.46
2019-05-29T21:22:54.208Z,11.45
2019-05-29T21:25:26.916Z,11.40
2019-05-29T21:27:58.763Z,11.34
2019-05-29T21:30:30.541Z,11.26
2019-05-29T21:33:02.626Z,11.20
2019-05-29T21:35:34.454Z,11.15
2019-05-29T21:38:06.688Z,11.09
2019-05-29T21:40:38.518Z,11.04
2019-05-29T21:43:10.580Z,11.01
2019-05-29T21:45:43.119Z,10.93
2019-05-29T21:48:15.082Z,10.88
2019-05-29T21:50:47.406Z,10.82
2019-05-29T21:53:19.959Z,10.76
2019-05-29T21:55:51.768Z,10.70
2019-05-29T21:58:25.347Z,10.66
2019-05-29T22:00:57.401Z,10.61
2019-05-29T22:03:29.792Z,10.54
2019-05-29T22:06:01.554Z,10.48
2019-05-29T22:08:33.729Z,10.43
2019-05-29T22:11:05.496Z,10.40
2019-05-29T22:13:37.629Z,10.35
2019-05-29T22:16:09.383Z,10.30
2019-05-29T22:18:41.450Z,10.26
2019-05-29T22:21:13.231Z,10.20
2019-05-29T22:23:45.474Z,10.15
2019-05-29T22:26:17.606Z,10.09
2019-05-29T22:28:51.137Z,10.01
2019-05-29T22:31:23.266Z,9.93
2019-05-29T22:33:57.479Z,9.87
2019-05-29T22:36:29.360Z,9.83
2019-05-29T22:39:01.841Z,9.79
2019-05-29T22:41:35.447Z,9.74
2019-05-29T22:44:07.664Z,9.69
2019-05-29T22:46:40.573Z,9.64
2019-05-29T22:49:12.588Z,9.56
2019-05-29T22:51:45.523Z,9.54
2019-05-29T22:54:17.700Z,9.48
2019-05-29T22:56:49.478Z,9.45
2019-05-29T22:59:31.437Z,9.40
2019-05-29T23:01:56.292Z,9.35
2019-05-29T23:04:28.489Z,9.31
2019-05-29T23:07:00.473Z,9.24
2019-05-29T23:09:33.900Z,9.18
2019-05-29T23:12:05.858Z,9.13
2019-05-29T23:14:37.716Z,9.12
2019-05-29T23:17:09.467Z,9.08
2019-05-29T23:19:41.906Z,9.05
2019-05-29T23:22:13.646Z,9.03
2019-05-29T23:24:45.761Z,8.97
2019-05-29T23:27:17.491Z,8.91
2019-05-29T23:29:49.673Z,8.88
2019-05-29T23:32:21.498Z,8.83
2019-05-29T23:34:54.904Z,8.77
2019-05-29T23:37:26.835Z,8.70
2019-05-29T23:39:59.367Z,8.66
2019-05-29T23:42:31.173Z,8.58
2019-05-29T23:45:03.779Z,8.54
2019-05-29T23:47:35.837Z,8.49
2019-05-29T23:50:08.460Z,8.42
2019-05-29T23:52:40.333Z,8.38
2019-05-29T23:55:12.715Z,8.32
2019-05-29T23:57:44.548Z,8.30
